Adamant, Vermont
Current Conditions -  °F | °C
As of 4:51 PM on Sunday 25 Jan 2015 (Local Time) from KMPV Reporting Station
Clear Clear  
Wind Chill: -21°   Ceiling: Unl
Heat Index: -13°   Visibility: 10mi
Dew Point: -19°   Wind: 10mph
Humidity: 64%   Direction: 310°NW
Pressure: 29.84"   Gusts: 22mph
Location:  44.33°N, 72.5°W
Report Text: KMPV 252151Z AUTO 31009G19KT 10SM CLR M13/M19 A2984 RMK AO2 SLP127 T11331189
Loading
Personal Weather Stations






























Interactive Weather Map New forecast layout! Learn more

10-Day Weather Forecast

Advertisements
Track Severe Weather on mobile